createdAt,value
2018-07-17T00:00:50.675Z,11.30
2018-07-17T00:03:18.674Z,7.10
2018-07-17T00:05:46.674Z,8.00
2018-07-17T00:08:14.715Z,8.93
2018-07-17T00:10:42.718Z,8.97
2018-07-17T00:13:10.735Z,9.00
2018-07-17T00:15:38.768Z,9.10
2018-07-17T00:18:06.782Z,7.40
2018-07-17T00:20:34.778Z,5.97
2018-07-17T00:23:02.806Z,7.43
2018-07-17T00:25:30.824Z,6.70
2018-07-17T00:27:58.850Z,6.03
2018-07-17T00:30:26.846Z,9.17
2018-07-17T00:32:54.850Z,6.73
2018-07-17T00:35:22.902Z,10.80
2018-07-17T00:37:50.920Z,7.00
2018-07-17T00:40:18.939Z,7.57
2018-07-17T00:42:46.964Z,8.37
2018-07-17T00:45:14.962Z,6.60
2018-07-17T00:47:42.975Z,9.27
2018-07-17T00:50:10.971Z,8.83
2018-07-17T00:52:38.973Z,8.67
2018-07-17T00:55:06.970Z,9.67
2018-07-17T00:57:34.979Z,9.37
2018-07-17T01:00:02.962Z,8.50
2018-07-17T01:02:36.492Z,8.93
2018-07-17T01:05:10.068Z,8.60
2018-07-17T01:07:43.435Z,8.43
2018-07-17T01:10:16.755Z,8.70
2018-07-17T01:12:44.106Z,12.53
2018-07-17T01:15:19.009Z,9.50
2018-07-17T01:17:47.025Z,14.70
2018-07-17T01:20:15.041Z,10.57
2018-07-17T01:22:43.039Z,13.17
2018-07-17T01:25:11.042Z,11.33
2018-07-17T01:27:39.060Z,9.77
2018-07-17T01:30:07.070Z,11.10
2018-07-17T01:32:35.110Z,15.80
2018-07-17T01:35:03.114Z,15.57
2018-07-17T01:37:31.130Z,10.67
2018-07-17T01:39:59.152Z,11.73
2018-07-17T01:42:27.158Z,12.50
2018-07-17T01:44:55.154Z,8.80
2018-07-17T01:47:23.171Z,10.13
2018-07-17T01:49:51.194Z,10.57
2018-07-17T01:52:19.207Z,10.93
2018-07-17T01:54:47.217Z,11.40
2018-07-17T01:57:15.206Z,11.77
2018-07-17T01:59:43.200Z,13.93
2018-07-17T02:02:11.286Z,13.30
2018-07-17T02:04:39.313Z,10.80
2018-07-17T02:07:07.435Z,12.43
2018-07-17T02:09:35.422Z,14.57
2018-07-17T02:12:03.395Z,12.37
2018-07-17T02:14:31.386Z,28.17
2018-07-17T02:16:59.391Z,15.43
2018-07-17T02:19:27.402Z,13.93
2018-07-17T02:21:55.408Z,12.73
2018-07-17T02:24:23.440Z,14.63
2018-07-17T02:26:51.464Z,11.97
2018-07-17T02:29:19.500Z,17.03
2018-07-17T02:31:47.509Z,16.33
2018-07-17T02:34:15.549Z,12.13
2018-07-17T02:36:43.553Z,11.10
2018-07-17T02:39:11.558Z,12.70
2018-07-17T02:41:39.577Z,13.43
2018-07-17T02:44:07.599Z,10.23
2018-07-17T02:46:35.595Z,10.87
2018-07-17T02:49:03.595Z,12.97
2018-07-17T02:51:31.615Z,12.80
2018-07-17T02:53:59.657Z,16.60
2018-07-17T02:56:27.769Z,14.80
2018-07-17T02:58:55.921Z,11.43
2018-07-17T03:01:23.959Z,15.10
2018-07-17T03:03:52.011Z,19.10
2018-07-17T03:06:20.019Z,19.47
2018-07-17T03:08:48.026Z,17.93
2018-07-17T03:11:17.138Z,15.67
2018-07-17T03:13:45.153Z,17.53
2018-07-17T03:16:13.162Z,15.27
2018-07-17T03:18:41.179Z,15.67
2018-07-17T03:21:09.199Z,12.37
2018-07-17T03:23:37.202Z,25.70
2018-07-17T03:26:05.194Z,16.20
2018-07-17T03:28:33.279Z,15.23
2018-07-17T03:31:01.304Z,13.43
2018-07-17T03:33:29.309Z,17.53
2018-07-17T03:35:57.314Z,16.83
2018-07-17T03:38:25.326Z,14.27
2018-07-17T03:40:53.342Z,14.10
2018-07-17T03:43:21.366Z,13.43
2018-07-17T03:45:49.376Z,10.60
2018-07-17T03:48:17.419Z,15.67
2018-07-17T03:50:45.498Z,14.67
2018-07-17T03:53:13.604Z,11.67
2018-07-17T03:55:41.627Z,11.40
2018-07-17T03:58:09.766Z,14.50
2018-07-17T04:00:37.808Z,14.43
2018-07-17T04:03:05.822Z,16.87
2018-07-17T04:05:33.852Z,19.13
2018-07-17T04:08:01.895Z,18.67
2018-07-17T04:10:29.906Z,16.80
2018-07-17T04:12:57.920Z,15.47
2018-07-17T04:15:25.942Z,18.67
2018-07-17T04:17:53.950Z,14.10
2018-07-17T04:20:21.980Z,17.60
2018-07-17T04:22:49.992Z,18.33
2018-07-17T04:25:18.019Z,17.23
2018-07-17T04:27:46.016Z,19.30
2018-07-17T04:30:14.047Z,17.43
2018-07-17T04:32:42.059Z,15.87
2018-07-17T04:35:10.094Z,13.10
2018-07-17T04:37:38.181Z,11.23
2018-07-17T04:40:06.183Z,11.00
2018-07-17T04:42:34.199Z,11.30
2018-07-17T04:45:02.391Z,11.57
2018-07-17T04:47:30.399Z,8.80
2018-07-17T04:49:58.427Z,10.03
2018-07-17T04:52:26.434Z,8.07
2018-07-17T04:54:54.450Z,8.83
2018-07-17T04:57:22.455Z,8.40
2018-07-17T04:59:50.475Z,12.17
2018-07-17T05:02:18.462Z,8.90
2018-07-17T05:04:46.483Z,13.40
2018-07-17T05:07:14.503Z,8.30
2018-07-17T05:09:42.522Z,12.17
2018-07-17T05:12:10.503Z,7.27
2018-07-17T05:14:38.515Z,11.17
2018-07-17T05:17:06.518Z,9.87
2018-07-17T05:19:34.529Z,6.63
2018-07-17T05:22:02.519Z,10.33
2018-07-17T05:24:30.527Z,8.70
2018-07-17T05:26:58.514Z,7.43
2018-07-17T05:29:26.536Z,8.90
2018-07-17T05:31:54.612Z,11.07
2018-07-17T05:34:22.632Z,9.87
2018-07-17T05:36:50.658Z,7.80
2018-07-17T05:39:18.668Z,7.63
2018-07-17T05:41:46.675Z,8.57
2018-07-17T05:44:14.662Z,6.97
2018-07-17T05:46:42.650Z,10.47
2018-07-17T05:49:10.659Z,6.20
2018-07-17T05:51:38.659Z,9.77
2018-07-17T05:54:06.675Z,8.40
2018-07-17T05:56:34.711Z,6.80
2018-07-17T05:59:02.843Z,6.23
2018-07-17T06:01:30.853Z,6.40
2018-07-17T06:03:59.076Z,7.93
2018-07-17T06:06:27.079Z,7.73
2018-07-17T06:08:55.106Z,7.10
2018-07-17T06:11:23.103Z,5.80
2018-07-17T06:13:51.102Z,6.97
2018-07-17T06:16:19.128Z,10.50
2018-07-17T06:18:47.177Z,6.73
2018-07-17T06:21:15.244Z,7.83
2018-07-17T06:23:43.227Z,6.97
2018-07-17T06:26:11.227Z,6.60
2018-07-17T06:28:39.226Z,6.70
2018-07-17T06:31:07.247Z,7.40
2018-07-17T06:33:35.230Z,9.80
2018-07-17T06:36:03.235Z,5.77
2018-07-17T06:38:31.234Z,4.97
2018-07-17T06:40:59.415Z,6.43
2018-07-17T06:43:27.430Z,7.73
2018-07-17T06:45:55.435Z,7.43
2018-07-17T06:48:23.443Z,8.37
2018-07-17T06:50:51.458Z,6.33
2018-07-17T06:53:19.440Z,9.60
2018-07-17T06:56:07.112Z,11.77
2018-07-17T06:58:35.108Z,6.00
2018-07-17T07:01:04.247Z,5.13
2018-07-17T07:03:32.275Z,7.13
2018-07-17T07:06:00.295Z,5.47
2018-07-17T07:08:28.342Z,6.07
2018-07-17T07:10:56.362Z,5.00
2018-07-17T07:13:24.374Z,7.80
2018-07-17T07:15:52.386Z,8.07
2018-07-17T07:18:20.838Z,5.10
2018-07-17T07:20:49.236Z,7.00
2018-07-17T07:23:17.291Z,4.60
2018-07-17T07:25:45.335Z,9.13
2018-07-17T07:28:13.655Z,7.03
2018-07-17T07:30:41.719Z,8.90
2018-07-17T07:33:09.734Z,8.93
2018-07-17T07:35:37.770Z,7.60
2018-07-17T07:38:05.818Z,8.13
2018-07-17T07:40:33.830Z,5.73
2018-07-17T07:43:01.932Z,4.20
2018-07-17T07:45:29.980Z,9.20
2018-07-17T07:47:57.995Z,4.83
2018-07-17T07:50:26.389Z,5.63
2018-07-17T07:52:54.572Z,6.53
2018-07-17T07:55:22.578Z,7.63
2018-07-17T07:57:50.605Z,11.87
2018-07-17T08:00:18.634Z,5.23
2018-07-17T08:02:46.656Z,4.60
2018-07-17T08:05:14.682Z,4.03
2018-07-17T08:07:42.731Z,4.33
2018-07-17T08:10:14.582Z,4.10
2018-07-17T08:12:42.615Z,6.07
2018-07-17T08:15:10.743Z,7.80
2018-07-17T08:17:39.019Z,10.33
2018-07-17T08:20:07.315Z,4.00
2018-07-17T08:22:35.760Z,6.90
2018-07-17T08:25:03.892Z,4.70
2018-07-17T08:27:32.008Z,4.10
2018-07-17T08:30:00.210Z,4.43
2018-07-17T08:32:28.531Z,4.00
2018-07-17T08:34:56.754Z,4.73
2018-07-17T08:37:25.126Z,4.30
2018-07-17T08:39:53.177Z,4.20
2018-07-17T08:42:21.505Z,5.10
2018-07-17T08:44:49.677Z,3.20
2018-07-17T08:47:17.723Z,3.83
2018-07-17T08:49:45.813Z,7.73
2018-07-17T08:52:14.085Z,3.10
2018-07-17T08:54:42.253Z,3.30
2018-07-17T08:57:11.145Z,4.00
2018-07-17T08:59:39.159Z,3.40
2018-07-17T09:02:07.274Z,3.27
2018-07-17T09:04:35.339Z,4.03
2018-07-17T09:07:03.838Z,2.87
2018-07-17T09:09:32.013Z,2.93
2018-07-17T09:12:00.338Z,3.10
2018-07-17T09:14:28.568Z,4.07
2018-07-17T09:16:56.713Z,3.00
2018-07-17T09:19:24.909Z,3.23
2018-07-17T09:21:53.019Z,3.40
2018-07-17T09:24:21.310Z,2.70
2018-07-17T09:26:49.526Z,3.20
2018-07-17T09:29:17.744Z,2.50
2018-07-17T09:31:45.838Z,6.50
2018-07-17T09:34:14.062Z,2.47
2018-07-17T09:36:42.370Z,2.30
2018-07-17T09:39:10.503Z,2.40
2018-07-17T09:41:38.612Z,5.63
2018-07-17T09:44:06.863Z,3.30
2018-07-17T09:46:40.528Z,3.00
2018-07-17T09:49:08.848Z,2.87
2018-07-17T09:51:36.962Z,2.70
2018-07-17T09:54:05.424Z,2.93
2018-07-17T09:56:33.880Z,2.00
2018-07-17T09:59:01.927Z,2.10
2018-07-17T10:01:35.793Z,1.67
2018-07-17T10:04:04.038Z,2.50
2018-07-17T10:06:32.070Z,1.70
2018-07-17T10:09:00.263Z,2.10
2018-07-17T10:11:28.275Z,3.17
2018-07-17T10:13:56.346Z,2.60
2018-07-17T10:16:24.405Z,3.07
2018-07-17T10:18:52.502Z,2.13
2018-07-17T10:21:20.541Z,2.67
2018-07-17T10:23:48.708Z,4.20
2018-07-17T10:26:17.117Z,1.83
2018-07-17T10:28:45.177Z,2.83
2018-07-17T10:31:13.275Z,1.80
2018-07-17T10:33:41.351Z,2.07
2018-07-17T10:36:09.404Z,2.20
2018-07-17T10:38:37.571Z,4.23
2018-07-17T10:41:05.612Z,2.33
2018-07-17T10:43:33.850Z,2.40
2018-07-17T10:46:01.892Z,4.30
2018-07-17T10:48:29.962Z,2.10
2018-07-17T10:50:58.246Z,1.80
2018-07-17T10:53:26.317Z,2.30
2018-07-17T10:55:59.047Z,2.90
2018-07-17T10:58:27.311Z,1.90
2018-07-17T11:00:55.490Z,2.50
2018-07-17T11:03:23.516Z,1.80
2018-07-17T11:05:51.633Z,8.07
2018-07-17T11:08:19.735Z,2.17
2018-07-17T11:10:47.881Z,2.00
2018-07-17T11:13:15.926Z,11.87
2018-07-17T11:15:44.246Z,2.47
2018-07-17T11:18:12.458Z,2.60
2018-07-17T11:20:40.631Z,2.07
2018-07-17T11:23:09.064Z,3.00
2018-07-17T11:25:37.398Z,2.07
2018-07-17T11:28:05.573Z,12.13
2018-07-17T11:30:33.745Z,2.60
2018-07-17T11:33:01.944Z,3.00
2018-07-17T11:35:30.163Z,2.23
2018-07-17T11:37:58.653Z,2.50
2018-07-17T11:40:26.904Z,2.30
2018-07-17T11:42:55.013Z,3.17
2018-07-17T11:45:23.155Z,4.13
2018-07-17T11:47:51.582Z,4.70
2018-07-17T11:50:19.635Z,3.40
2018-07-17T11:52:47.673Z,2.27
2018-07-17T11:55:16.775Z,3.43
2018-07-17T11:57:44.820Z,2.43
2018-07-17T12:00:13.038Z,3.90
2018-07-17T12:02:41.192Z,2.70
2018-07-17T12:05:09.373Z,2.20
2018-07-17T12:07:37.590Z,5.00
2018-07-17T12:10:05.721Z,2.50
2018-07-17T12:12:34.149Z,2.27
2018-07-17T12:15:02.320Z,6.70
2018-07-17T12:17:30.380Z,4.40
2018-07-17T12:19:58.623Z,2.70
2018-07-17T12:22:26.684Z,2.33
2018-07-17T12:24:54.881Z,2.37
2018-07-17T12:27:23.126Z,2.80
2018-07-17T12:29:51.260Z,2.47
2018-07-17T12:32:19.661Z,3.67
2018-07-17T12:34:47.828Z,2.47
2018-07-17T12:37:16.288Z,2.63
2018-07-17T12:39:44.423Z,2.90
2018-07-17T12:42:12.728Z,3.67
2018-07-17T12:44:40.861Z,3.60
2018-07-17T12:47:08.953Z,2.70
2018-07-17T12:49:37.078Z,2.07
2018-07-17T12:52:05.357Z,2.70
2018-07-17T12:54:33.384Z,4.00
2018-07-17T12:57:01.549Z,2.00
2018-07-17T12:59:29.579Z,2.27
2018-07-17T13:01:57.776Z,6.33
2018-07-17T13:04:25.835Z,2.93
2018-07-17T13:06:53.860Z,3.57
2018-07-17T13:09:21.958Z,3.10
2018-07-17T13:11:49.932Z,2.40
2018-07-17T13:14:17.943Z,1.50
2018-07-17T13:16:45.967Z,3.27
2018-07-17T13:19:13.970Z,9.30
2018-07-17T13:21:41.987Z,2.87
2018-07-17T13:24:10.009Z,2.40
2018-07-17T13:26:38.041Z,1.67
2018-07-17T13:29:06.127Z,3.80
2018-07-17T13:31:34.148Z,2.10
2018-07-17T13:34:02.143Z,6.43
2018-07-17T13:36:30.187Z,3.60
2018-07-17T13:38:58.210Z,1.93
2018-07-17T13:41:26.421Z,4.40
2018-07-17T13:43:54.431Z,1.70
2018-07-17T13:46:22.459Z,1.40
2018-07-17T13:48:50.594Z,2.93
2018-07-17T13:51:20.702Z,1.40
2018-07-17T13:53:48.711Z,2.33
2018-07-17T13:56:16.836Z,1.50
2018-07-17T13:58:44.876Z,1.73
2018-07-17T14:01:13.016Z,3.80
2018-07-17T14:03:41.028Z,2.20
2018-07-17T14:06:09.092Z,1.77
2018-07-17T14:08:37.163Z,2.50
2018-07-17T14:11:05.183Z,2.30
2018-07-17T14:13:33.425Z,2.40
2018-07-17T14:16:01.595Z,9.93
2018-07-17T14:18:30.157Z,2.30
2018-07-17T14:20:58.229Z,2.10
2018-07-17T14:23:26.314Z,2.30
2018-07-17T14:25:54.720Z,2.40
2018-07-17T14:28:22.756Z,3.70
2018-07-17T14:30:51.855Z,4.43
2018-07-17T14:33:19.947Z,2.97
2018-07-17T14:35:48.252Z,3.77
2018-07-17T14:38:16.341Z,3.70
2018-07-17T14:40:44.601Z,2.27
2018-07-17T14:43:12.708Z,2.57
2018-07-17T14:45:41.135Z,2.53
2018-07-17T14:48:09.854Z,3.57
2018-07-17T14:50:38.249Z,4.53
2018-07-17T14:53:06.391Z,2.80
2018-07-17T14:55:36.543Z,4.47
2018-07-17T14:58:04.682Z,3.53
2018-07-17T15:00:32.831Z,8.83
2018-07-17T15:03:00.854Z,4.93
2018-07-17T15:05:28.989Z,10.47
2018-07-17T15:07:57.233Z,23.97
2018-07-17T15:10:25.368Z,11.83
2018-07-17T15:12:53.397Z,11.77
2018-07-17T15:15:21.485Z,19.00
2018-07-17T15:17:49.553Z,13.20
2018-07-17T15:20:17.607Z,10.37
2018-07-17T15:22:45.723Z,7.00
2018-07-17T15:25:13.875Z,8.03
2018-07-17T15:27:42.065Z,7.70
2018-07-17T15:30:10.134Z,9.60
2018-07-17T15:32:38.256Z,6.77
2018-07-17T15:35:06.303Z,7.87
2018-07-17T15:37:34.383Z,10.00
2018-07-17T15:40:02.452Z,6.50
2018-07-17T15:42:30.539Z,5.20
2018-07-17T15:44:58.626Z,5.03
2018-07-17T15:47:26.789Z,5.57
2018-07-17T15:49:54.926Z,3.90
2018-07-17T15:52:23.176Z,3.53
2018-07-17T15:54:51.269Z,3.80
2018-07-17T15:57:19.772Z,5.20
2018-07-17T15:59:48.194Z,2.53
2018-07-17T16:02:16.312Z,3.13
2018-07-17T16:04:44.462Z,3.20
2018-07-17T16:07:12.461Z,3.03
2018-07-17T16:09:40.594Z,4.37
2018-07-17T16:12:08.747Z,2.40
2018-07-17T16:14:36.800Z,2.70
2018-07-17T16:17:04.852Z,3.10
2018-07-17T16:19:33.027Z,2.30
2018-07-17T16:22:01.065Z,3.13
2018-07-17T16:24:29.191Z,2.77
2018-07-17T16:26:57.218Z,3.07
2018-07-17T16:29:25.262Z,3.50
2018-07-17T16:31:53.327Z,2.20
2018-07-17T16:34:21.370Z,2.90
2018-07-17T16:36:49.509Z,2.90
2018-07-17T16:39:17.703Z,7.67
2018-07-17T16:41:45.900Z,2.90
2018-07-17T16:44:14.316Z,2.87
2018-07-17T16:46:42.551Z,2.40
2018-07-17T16:49:10.707Z,2.63
2018-07-17T16:51:38.917Z,2.37
2018-07-17T16:54:07.023Z,2.60
2018-07-17T16:56:42.328Z,5.73
2018-07-17T16:59:10.410Z,2.00
2018-07-17T17:01:38.600Z,3.23
2018-07-17T17:04:06.779Z,5.00
2018-07-17T17:06:34.911Z,2.03
2018-07-17T17:09:03.080Z,2.73
2018-07-17T17:11:31.087Z,1.70
2018-07-17T17:13:59.147Z,2.83
2018-07-17T17:16:27.247Z,1.90
2018-07-17T17:18:55.344Z,2.13
2018-07-17T17:21:23.440Z,3.60
2018-07-17T17:23:51.581Z,1.87
2018-07-17T17:26:19.636Z,2.40
2018-07-17T17:28:47.861Z,2.80
2018-07-17T17:31:16.021Z,2.40
2018-07-17T17:33:44.187Z,4.17
2018-07-17T17:36:12.339Z,2.07
2018-07-17T17:38:40.437Z,2.70
2018-07-17T17:41:08.632Z,3.50
2018-07-17T17:43:36.665Z,6.40
2018-07-17T17:46:04.744Z,7.70
2018-07-17T17:48:32.856Z,9.07
2018-07-17T17:51:00.997Z,11.43
2018-07-17T17:53:29.077Z,11.43
2018-07-17T17:55:57.158Z,9.23
2018-07-17T17:58:25.231Z,12.17
2018-07-17T18:00:53.340Z,9.03
2018-07-17T18:03:21.454Z,9.80
2018-07-17T18:05:49.520Z,11.00
2018-07-17T18:08:17.743Z,10.10
2018-07-17T18:10:45.833Z,15.53
2018-07-17T18:13:13.874Z,15.80
2018-07-17T18:15:41.998Z,14.60
2018-07-17T18:18:10.192Z,12.00
2018-07-17T18:20:38.403Z,8.53
2018-07-17T18:23:06.596Z,9.23
2018-07-17T18:25:34.655Z,7.30
2018-07-17T18:28:02.711Z,9.00
2018-07-17T18:30:30.761Z,7.73
2018-07-17T18:32:58.800Z,9.73
2018-07-17T18:35:26.859Z,6.67
2018-07-17T18:37:54.966Z,8.23
2018-07-17T18:40:23.014Z,8.57
2018-07-17T18:42:51.039Z,8.40
2018-07-17T18:45:19.144Z,6.27
2018-07-17T18:47:47.294Z,6.73
2018-07-17T18:50:15.433Z,11.43
2018-07-17T18:52:43.438Z,7.47
2018-07-17T18:55:11.594Z,5.63
2018-07-17T18:57:39.601Z,6.10
2018-07-17T19:00:07.680Z,6.13
2018-07-17T19:02:35.810Z,5.67
2018-07-17T19:05:03.907Z,6.43
2018-07-17T19:07:31.952Z,6.83
2018-07-17T19:09:59.989Z,9.70
2018-07-17T19:12:28.116Z,5.57
2018-07-17T19:14:56.088Z,10.20
2018-07-17T19:17:24.107Z,5.20
2018-07-17T19:19:52.111Z,5.40
2018-07-17T19:22:20.178Z,6.60
2018-07-17T19:24:48.244Z,5.37
2018-07-17T19:27:16.336Z,6.27
2018-07-17T19:29:44.603Z,5.97
2018-07-17T19:32:12.643Z,7.67
2018-07-17T19:34:40.717Z,5.90
2018-07-17T19:37:08.842Z,8.27
2018-07-17T19:39:36.937Z,8.00
2018-07-17T19:42:05.007Z,11.90
2018-07-17T19:44:32.994Z,7.60
2018-07-17T19:47:01.020Z,8.30
2018-07-17T19:49:29.017Z,8.20
2018-07-17T19:51:57.013Z,5.93
2018-07-17T19:54:25.019Z,7.77
2018-07-17T19:56:53.022Z,5.27
2018-07-17T19:59:21.098Z,5.70
2018-07-17T20:01:49.094Z,5.83
2018-07-17T20:04:17.086Z,6.20
2018-07-17T20:06:45.091Z,4.90
2018-07-17T20:09:13.081Z,6.23
2018-07-17T20:11:41.082Z,6.77
2018-07-17T20:14:09.074Z,6.17
2018-07-17T20:16:37.086Z,6.50
2018-07-17T20:19:05.089Z,11.27
2018-07-17T20:21:33.096Z,7.70
2018-07-17T20:24:01.138Z,4.17
2018-07-17T20:26:29.199Z,4.70
2018-07-17T20:28:57.130Z,4.37
2018-07-17T20:31:25.155Z,5.50
2018-07-17T20:33:53.143Z,4.20
2018-07-17T20:36:21.162Z,6.50
2018-07-17T20:38:49.174Z,3.60
2018-07-17T20:41:17.196Z,4.37
2018-07-17T20:43:45.193Z,5.60
2018-07-17T20:46:13.174Z,6.17
2018-07-17T20:48:41.198Z,3.90
2018-07-17T20:51:09.760Z,7.57
2018-07-17T20:53:37.759Z,4.73
2018-07-17T20:56:05.765Z,7.27
2018-07-17T20:58:33.811Z,8.30
2018-07-17T21:01:01.767Z,12.00
2018-07-17T21:03:29.766Z,4.53
2018-07-17T21:05:57.755Z,6.30
2018-07-17T21:08:25.758Z,4.97
2018-07-17T21:10:53.819Z,5.40
2018-07-17T21:13:21.938Z,5.73
2018-07-17T21:15:49.811Z,5.20
2018-07-17T21:18:17.819Z,4.70
2018-07-17T21:20:45.822Z,5.10
2018-07-17T21:23:13.848Z,5.77
2018-07-17T21:25:41.826Z,7.27
2018-07-17T21:28:09.837Z,4.50
2018-07-17T21:30:37.846Z,4.83
2018-07-17T21:33:05.855Z,6.13
2018-07-17T21:35:33.854Z,6.20
2018-07-17T21:38:01.990Z,5.37
2018-07-17T21:40:30.007Z,6.63
2018-07-17T21:42:58.003Z,7.40
2018-07-17T21:45:26.010Z,6.20
2018-07-17T21:47:54.019Z,10.33
2018-07-17T21:50:22.014Z,7.20
2018-07-17T21:52:50.018Z,7.03
2018-07-17T21:55:18.023Z,7.10
2018-07-17T21:57:46.030Z,7.20
2018-07-17T22:00:14.030Z,7.33
2018-07-17T22:02:42.022Z,7.17
2018-07-17T22:05:10.021Z,7.77
2018-07-17T22:07:38.027Z,6.70
2018-07-17T22:10:06.100Z,7.13
2018-07-17T22:12:34.108Z,8.27
2018-07-17T22:15:02.111Z,8.80
2018-07-17T22:17:30.115Z,7.50
2018-07-17T22:19:58.128Z,7.80
2018-07-17T22:22:26.098Z,8.40
2018-07-17T22:24:54.098Z,8.60
2018-07-17T22:27:22.083Z,8.13
2018-07-17T22:29:50.084Z,8.90
2018-07-17T22:32:18.082Z,9.53
2018-07-17T22:34:46.084Z,9.73
2018-07-17T22:37:14.148Z,6.20
2018-07-17T22:39:42.083Z,7.80
2018-07-17T22:42:10.077Z,6.40
2018-07-17T22:44:38.072Z,6.20
2018-07-17T22:47:06.055Z,7.07
2018-07-17T22:49:34.055Z,6.87
2018-07-17T22:52:02.054Z,6.90
2018-07-17T22:54:30.055Z,6.93
2018-07-17T22:56:58.054Z,5.00
2018-07-17T22:59:26.050Z,6.40
2018-07-17T23:01:54.047Z,5.90
2018-07-17T23:04:22.051Z,7.37
2018-07-17T23:06:50.038Z,7.07
2018-07-17T23:09:18.035Z,7.03
2018-07-17T23:11:46.035Z,7.80
2018-07-17T23:14:14.038Z,9.47
2018-07-17T23:16:42.035Z,12.33
2018-07-17T23:19:10.039Z,6.77
2018-07-17T23:21:38.027Z,6.83
2018-07-17T23:24:06.030Z,9.33
2018-07-17T23:26:34.036Z,10.93
2018-07-17T23:29:02.870Z,8.60
2018-07-17T23:31:30.867Z,7.77
2018-07-17T23:33:58.870Z,6.70
2018-07-17T23:36:26.879Z,6.60
2018-07-17T23:38:54.881Z,6.73
2018-07-17T23:41:22.870Z,8.30
2018-07-17T23:43:50.874Z,5.60
2018-07-17T23:46:18.905Z,7.07
2018-07-17T23:48:46.865Z,7.10
2018-07-17T23:51:14.851Z,8.00
2018-07-17T23:53:42.924Z,6.37
2018-07-17T23:56:10.909Z,8.33
2018-07-17T23:58:38.958Z,5.70
